sensor_id;sensor_type;location;lat;lon;timestamp;pressure;altitude;pressure_sealevel;temperature
50206;BMP280;36098;48.390;10.856;2023-11-21T00:02:12;95500.00;;;21.96
50206;BMP280;36098;48.390;10.856;2023-11-21T00:04:37;95500.25;;;21.95
50206;BMP280;36098;48.390;10.856;2023-11-21T00:07:03;95489.25;;;21.93
50206;BMP280;36098;48.390;10.856;2023-11-21T00:09:28;95490.31;;;21.92
50206;BMP280;36098;48.390;10.856;2023-11-21T00:11:54;95488.72;;;21.91
50206;BMP280;36098;48.390;10.856;2023-11-21T00:14:19;95482.97;;;21.89
50206;BMP280;36098;48.390;10.856;2023-11-21T00:16:44;95480.34;;;21.89
50206;BMP280;36098;48.390;10.856;2023-11-21T00:19:10;95486.66;;;21.88
50206;BMP280;36098;48.390;10.856;2023-11-21T00:21:36;95489.56;;;21.86
50206;BMP280;36098;48.390;10.856;2023-11-21T00:24:01;95489.28;;;21.88
50206;BMP280;36098;48.390;10.856;2023-11-21T00:26:26;95488.78;;;21.86
50206;BMP280;36098;48.390;10.856;2023-11-21T00:28:52;95484.59;;;21.85
50206;BMP280;36098;48.390;10.856;2023-11-21T00:31:17;95488.28;;;21.84
50206;BMP280;36098;48.390;10.856;2023-11-21T00:33:42;95483.00;;;21.84
50206;BMP280;36098;48.390;10.856;2023-11-21T00:36:08;95486.69;;;21.83
50206;BMP280;36098;48.390;10.856;2023-11-21T00:38:35;95479.59;;;21.83
50206;BMP280;36098;48.390;10.856;2023-11-21T00:41:01;95483.28;;;21.82
50206;BMP280;36098;48.390;10.856;2023-11-21T00:43:26;95494.09;;;21.81
50206;BMP280;36098;48.390;10.856;2023-11-21T00:45:51;95485.66;;;21.79
50206;BMP280;36098;48.390;10.856;2023-11-21T00:48:16;95490.91;;;21.79
50206;BMP280;36098;48.390;10.856;2023-11-21T00:50:43;95497.22;;;21.78
50206;BMP280;36098;48.390;10.856;2023-11-21T00:53:08;95503.53;;;21.77
50206;BMP280;36098;48.390;10.856;2023-11-21T00:55:34;95500.41;;;21.75
50206;BMP280;36098;48.390;10.856;2023-11-21T00:58:00;95509.88;;;21.76
50206;BMP280;36098;48.390;10.856;2023-11-21T01:00:25;95511.97;;;21.74
50206;BMP280;36098;48.390;10.856;2023-11-21T01:02:51;95514.59;;;21.74
50206;BMP280;36098;48.390;10.856;2023-11-21T01:05:16;95511.22;;;21.73
50206;BMP280;36098;48.390;10.856;2023-11-21T01:07:41;95504.09;;;21.74
50206;BMP280;36098;48.390;10.856;2023-11-21T01:10:07;95506.22;;;21.72
50206;BMP280;36098;48.390;10.856;2023-11-21T01:12:35;95506.22;;;21.72
50206;BMP280;36098;48.390;10.856;2023-11-21T01:15:03;95507.03;;;21.72
50206;BMP280;36098;48.390;10.856;2023-11-21T01:17:29;95510.72;;;21.71
50206;BMP280;36098;48.390;10.856;2023-11-21T01:19:54;95509.13;;;21.70
50206;BMP280;36098;48.390;10.856;2023-11-21T01:22:19;95513.09;;;21.68
50206;BMP280;36098;48.390;10.856;2023-11-21T01:24:50;95515.72;;;21.68
50206;BMP280;36098;48.390;10.856;2023-11-21T01:27:16;95517.03;;;21.65
50206;BMP280;36098;48.390;10.856;2023-11-21T01:29:42;95513.34;;;21.66
50206;BMP280;36098;48.390;10.856;2023-11-21T01:32:07;95509.44;;;21.64
50206;BMP280;36098;48.390;10.856;2023-11-21T01:34:33;95516.25;;;21.65
50206;BMP280;36098;48.390;10.856;2023-11-21T01:36:58;95514.69;;;21.64
50206;BMP280;36098;48.390;10.856;2023-11-21T01:39:25;95519.94;;;21.64
50206;BMP280;36098;48.390;10.856;2023-11-21T01:41:50;95513.13;;;21.63
50206;BMP280;36098;48.390;10.856;2023-11-21T01:44:16;95513.63;;;21.60
50206;BMP280;36098;48.390;10.856;2023-11-21T01:46:43;95512.59;;;21.61
50206;BMP280;36098;48.390;10.856;2023-11-21T01:49:10;95513.63;;;21.60
50206;BMP280;36098;48.390;10.856;2023-11-21T01:51:38;95517.59;;;21.57
50206;BMP280;36098;48.390;10.856;2023-11-21T01:54:04;95511.53;;;21.57
50206;BMP280;36098;48.390;10.856;2023-11-21T01:56:30;95514.16;;;21.57
50206;BMP280;36098;48.390;10.856;2023-11-21T01:58:57;95508.91;;;21.57
50206;BMP280;36098;48.390;10.856;2023-11-21T02:01:22;95509.19;;;21.55
50206;BMP280;36098;48.390;10.856;2023-11-21T02:03:47;95512.38;;;21.52
50206;BMP280;36098;48.390;10.856;2023-11-21T02:06:13;95515.50;;;21.54
50206;BMP280;36098;48.390;10.856;2023-11-21T02:08:38;95506.31;;;21.52
50206;BMP280;36098;48.390;10.856;2023-11-21T02:11:05;95508.94;;;21.52
50206;BMP280;36098;48.390;10.856;2023-11-21T02:13:30;95506.31;;;21.52
50206;BMP280;36098;48.390;10.856;2023-11-21T02:15:56;95509.22;;;21.50
50206;BMP280;36098;48.390;10.856;2023-11-21T02:18:21;95503.19;;;21.50
50206;BMP280;36098;48.390;10.856;2023-11-21T02:20:47;95503.19;;;21.50
50206;BMP280;36098;48.390;10.856;2023-11-21T02:23:12;95496.38;;;21.49
50206;BMP280;36098;48.390;10.856;2023-11-21T02:25:38;95496.38;;;21.49
50206;BMP280;36098;48.390;10.856;2023-11-21T02:28:03;95494.28;;;21.46
50206;BMP280;36098;48.390;10.856;2023-11-21T02:30:29;95491.66;;;21.46
50206;BMP280;36098;48.390;10.856;2023-11-21T02:32:57;95482.72;;;21.47
50206;BMP280;36098;48.390;10.856;2023-11-21T02:35:22;95489.03;;;21.46
50206;BMP280;36098;48.390;10.856;2023-11-21T02:37:48;95492.97;;;21.43
50206;BMP280;36098;48.390;10.856;2023-11-21T02:40:13;95494.84;;;21.43
50206;BMP280;36098;48.390;10.856;2023-11-21T02:42:42;95486.94;;;21.43
50206;BMP280;36098;48.390;10.856;2023-11-21T02:45:08;95492.19;;;21.43
50206;BMP280;36098;48.390;10.856;2023-11-21T02:47:34;95495.09;;;21.41
50206;BMP280;36098;48.390;10.856;2023-11-21T02:49:59;95481.19;;;21.41
50206;BMP280;36098;48.390;10.856;2023-11-21T02:52:24;95473.56;;;21.39
50206;BMP280;36098;48.390;10.856;2023-11-21T02:54:50;95480.66;;;21.39
50206;BMP280;36098;48.390;10.856;2023-11-21T02:57:15;95476.19;;;21.39
50206;BMP280;36098;48.390;10.856;2023-11-21T02:59:40;95474.63;;;21.38
50206;BMP280;36098;48.390;10.856;2023-11-21T03:02:06;95470.44;;;21.38
50206;BMP280;36098;48.390;10.856;2023-11-21T03:04:34;95467.81;;;21.38
50206;BMP280;36098;48.390;10.856;2023-11-21T03:07:00;95468.06;;;21.36
50206;BMP280;36098;48.390;10.856;2023-11-21T03:09:25;95464.41;;;21.32
50206;BMP280;36098;48.390;10.856;2023-11-21T03:11:52;95466.50;;;21.35
50206;BMP280;36098;48.390;10.856;2023-11-21T03:14:17;95472.03;;;21.34
50206;BMP280;36098;48.390;10.856;2023-11-21T03:16:43;95472.28;;;21.32
50206;BMP280;36098;48.390;10.856;2023-11-21T03:19:10;95468.09;;;21.31
50206;BMP280;36098;48.390;10.856;2023-11-21T03:21:35;95462.06;;;21.31
50206;BMP280;36098;48.390;10.856;2023-11-21T03:24:01;95456.78;;;21.31
50206;BMP280;36098;48.390;10.856;2023-11-21T03:26:26;95463.41;;;21.28
50206;BMP280;36098;48.390;10.856;2023-11-21T03:28:52;95459.72;;;21.29
50206;BMP280;36098;48.390;10.856;2023-11-21T03:31:18;95468.66;;;21.28
50206;BMP280;36098;48.390;10.856;2023-11-21T03:33:44;95477.59;;;21.27
50206;BMP280;36098;48.390;10.856;2023-11-21T03:36:11;95476.78;;;21.27
50206;BMP280;36098;48.390;10.856;2023-11-21T03:38:36;95477.06;;;21.25
50206;BMP280;36098;48.390;10.856;2023-11-21T03:41:02;95480.75;;;21.24
50206;BMP280;36098;48.390;10.856;2023-11-21T03:43:27;95481.00;;;21.23
50206;BMP280;36098;48.390;10.856;2023-11-21T03:45:52;95493.09;;;21.24
50206;BMP280;36098;48.390;10.856;2023-11-21T03:48:18;95488.63;;;21.24
50206;BMP280;36098;48.390;10.856;2023-11-21T03:50:43;95491.50;;;21.23
50206;BMP280;36098;48.390;10.856;2023-11-21T03:53:08;95486.28;;;21.23
50206;BMP280;36098;48.390;10.856;2023-11-21T03:55:33;95495.19;;;21.22
50206;BMP280;36098;48.390;10.856;2023-11-21T03:57:59;95488.38;;;21.21
50206;BMP280;36098;48.390;10.856;2023-11-21T04:00:25;95491.81;;;21.21
50206;BMP280;36098;48.390;10.856;2023-11-21T04:02:52;95491.25;;;21.19
50206;BMP280;36098;48.390;10.856;2023-11-21T04:05:17;95491.25;;;21.19
50206;BMP280;36098;48.390;10.856;2023-11-21T04:07:43;95485.25;;;21.19
50206;BMP280;36098;48.390;10.856;2023-11-21T04:10:08;95485.50;;;21.17
50206;BMP280;36098;48.390;10.856;2023-11-21T04:12:35;95489.97;;;21.17
50206;BMP280;36098;48.390;10.856;2023-11-21T04:15:00;95486.56;;;21.16
50206;BMP280;36098;48.390;10.856;2023-11-21T04:17:25;95485.78;;;21.16
50206;BMP280;36098;48.390;10.856;2023-11-21T04:19:51;95486.56;;;21.16
50206;BMP280;36098;48.390;10.856;2023-11-21T04:22:16;95492.88;;;21.15
50206;BMP280;36098;48.390;10.856;2023-11-21T04:24:41;95486.59;;;21.11
50206;BMP280;36098;48.390;10.856;2023-11-21T04:27:06;95489.72;;;21.13
50206;BMP280;36098;48.390;10.856;2023-11-21T04:29:32;95478.72;;;21.11
50206;BMP280;36098;48.390;10.856;2023-11-21T04:31:58;95485.53;;;21.12
50206;BMP280;36098;48.390;10.856;2023-11-21T04:34:23;95480.28;;;21.12
50206;BMP280;36098;48.390;10.856;2023-11-21T04:36:49;95477.66;;;21.12
50206;BMP280;36098;48.390;10.856;2023-11-21T04:39:15;95477.16;;;21.10
50206;BMP280;36098;48.390;10.856;2023-11-21T04:41:40;95477.16;;;21.10
50206;BMP280;36098;48.390;10.856;2023-11-21T04:44:06;95475.56;;;21.09
50206;BMP280;36098;48.390;10.856;2023-11-21T04:46:31;95479.25;;;21.08
50206;BMP280;36098;48.390;10.856;2023-11-21T04:48:57;95471.09;;;21.10
50206;BMP280;36098;48.390;10.856;2023-11-21T04:51:23;95484.50;;;21.08
50206;BMP280;36098;48.390;10.856;2023-11-21T04:53:48;95483.44;;;21.09
50206;BMP280;36098;48.390;10.856;2023-11-21T04:56:13;95479.50;;;21.07
50206;BMP280;36098;48.390;10.856;2023-11-21T04:58:39;95484.78;;;21.07
50206;BMP280;36098;48.390;10.856;2023-11-21T05:01:06;95490.31;;;21.05
50206;BMP280;36098;48.390;10.856;2023-11-21T05:03:32;95490.31;;;21.05
50206;BMP280;36098;48.390;10.856;2023-11-21T05:05:57;95491.34;;;21.04
50206;BMP280;36098;48.390;10.856;2023-11-21T05:08:22;95505.25;;;21.05
50206;BMP280;36098;48.390;10.856;2023-11-21T05:10:48;95503.69;;;21.04
50206;BMP280;36098;48.390;10.856;2023-11-21T05:13:14;95499.50;;;21.03
50206;BMP280;36098;48.390;10.856;2023-11-21T05:15:42;95506.59;;;21.02
50206;BMP280;36098;48.390;10.856;2023-11-21T05:18:07;95509.22;;;21.02
50206;BMP280;36098;48.390;10.856;2023-11-21T05:20:32;95503.44;;;21.00
50206;BMP280;36098;48.390;10.856;2023-11-21T05:22:58;95511.31;;;21.00
50206;BMP280;36098;48.390;10.856;2023-11-21T05:25:24;95509.72;;;20.99
50206;BMP280;36098;48.390;10.856;2023-11-21T05:27:49;95501.84;;;20.99
50206;BMP280;36098;48.390;10.856;2023-11-21T05:30:15;95512.34;;;20.99
50206;BMP280;36098;48.390;10.856;2023-11-21T05:32:41;95509.72;;;20.99
50206;BMP280;36098;48.390;10.856;2023-11-21T05:35:08;95504.78;;;20.98
50206;BMP280;36098;48.390;10.856;2023-11-21T05:37:37;95513.41;;;20.98
50206;BMP280;36098;48.390;10.856;2023-11-21T05:40:07;95515.25;;;20.98
50206;BMP280;36098;48.390;10.856;2023-11-21T05:42:33;95513.69;;;20.97
50206;BMP280;36098;48.390;10.856;2023-11-21T05:44:59;95520.50;;;20.98
50206;BMP280;36098;48.390;10.856;2023-11-21T05:47:25;95517.38;;;20.96
50206;BMP280;36098;48.390;10.856;2023-11-21T05:49:53;95526.03;;;20.96
50206;BMP280;36098;48.390;10.856;2023-11-21T05:52:18;95522.88;;;20.94
50206;BMP280;36098;48.390;10.856;2023-11-21T05:54:44;95517.13;;;20.92
50206;BMP280;36098;48.390;10.856;2023-11-21T05:57:09;95524.19;;;20.97
50206;BMP280;36098;48.390;10.856;2023-11-21T05:59:34;95519.47;;;20.99
50206;BMP280;36098;48.390;10.856;2023-11-21T06:01:59;95514.22;;;20.99
50206;BMP280;36098;48.390;10.856;2023-11-21T06:04:25;95514.97;;;20.99
50206;BMP280;36098;48.390;10.856;2023-11-21T06:06:51;95518.13;;;21.01
50206;BMP280;36098;48.390;10.856;2023-11-21T06:09:18;95523.13;;;21.03
50206;BMP280;36098;48.390;10.856;2023-11-21T06:11:43;95517.88;;;21.03
50206;BMP280;36098;48.390;10.856;2023-11-21T06:14:08;95523.13;;;21.03
50206;BMP280;36098;48.390;10.856;2023-11-21T06:16:34;95518.38;;;21.05
50206;BMP280;36098;48.390;10.856;2023-11-21T06:19:00;95527.56;;;21.07
50206;BMP280;36098;48.390;10.856;2023-11-21T06:21:26;95530.19;;;21.07
50206;BMP280;36098;48.390;10.856;2023-11-21T06:23:51;95541.22;;;21.09
50206;BMP280;36098;48.390;10.856;2023-11-21T06:26:18;95542.25;;;21.08
50206;BMP280;36098;48.390;10.856;2023-11-21T06:28:43;95535.44;;;21.07
50206;BMP280;36098;48.390;10.856;2023-11-21T06:31:09;95538.31;;;21.06
50206;BMP280;36098;48.390;10.856;2023-11-21T06:33:35;95542.00;;;21.05
50206;BMP280;36098;48.390;10.856;2023-11-21T06:36:01;95537.81;;;21.04
50206;BMP280;36098;48.390;10.856;2023-11-21T06:38:29;95542.00;;;21.05
50206;BMP280;36098;48.390;10.856;2023-11-21T06:40:56;95547.53;;;21.03
50206;BMP280;36098;48.390;10.856;2023-11-21T06:43:21;95550.16;;;21.03
50206;BMP280;36098;48.390;10.856;2023-11-21T06:45:47;95560.66;;;21.03
50206;BMP280;36098;48.390;10.856;2023-11-21T06:48:12;95551.22;;;21.02
50206;BMP280;36098;48.390;10.856;2023-11-21T06:50:38;95557.50;;;21.01
50206;BMP280;36098;48.390;10.856;2023-11-21T06:53:03;95559.34;;;21.01
50206;BMP280;36098;48.390;10.856;2023-11-21T06:55:31;95563.03;;;21.00
50206;BMP280;36098;48.390;10.856;2023-11-21T06:57:57;95566.16;;;21.02
50206;BMP280;36098;48.390;10.856;2023-11-21T07:00:23;95563.28;;;20.98
50206;BMP280;36098;48.390;10.856;2023-11-21T07:02:48;95566.41;;;21.00
50206;BMP280;36098;48.390;10.856;2023-11-21T07:05:14;95571.66;;;21.00
50206;BMP280;36098;48.390;10.856;2023-11-21T07:07:40;95579.53;;;21.00
50206;BMP280;36098;48.390;10.856;2023-11-21T07:10:06;95572.47;;;21.01
50206;BMP280;36098;48.390;10.856;2023-11-21T07:12:31;95572.22;;;20.97
50206;BMP280;36098;48.390;10.856;2023-11-21T07:14:57;95577.97;;;20.99
50206;BMP280;36098;48.390;10.856;2023-11-21T07:17:23;95577.47;;;20.97
50206;BMP280;36098;48.390;10.856;2023-11-21T07:19:48;95582.72;;;20.97
50206;BMP280;36098;48.390;10.856;2023-11-21T07:22:15;95582.72;;;20.97
50206;BMP280;36098;48.390;10.856;2023-11-21T07:24:41;95586.91;;;20.98
50206;BMP280;36098;48.390;10.856;2023-11-21T07:27:06;95588.47;;;20.99
50206;BMP280;36098;48.390;10.856;2023-11-21T07:29:31;95586.13;;;21.03
50206;BMP280;36098;48.390;10.856;2023-11-21T07:31:56;95592.91;;;21.09
50206;BMP280;36098;48.390;10.856;2023-11-21T07:34:22;95588.41;;;21.19
50206;BMP280;36098;48.390;10.856;2023-11-21T07:36:47;95607.78;;;21.38
50206;BMP280;36098;48.390;10.856;2023-11-21T07:39:12;95602.47;;;21.63
50206;BMP280;36098;48.390;10.856;2023-11-21T07:41:40;95591.28;;;21.86
50206;BMP280;36098;48.390;10.856;2023-11-21T07:44:10;95606.84;;;22.21
50206;BMP280;36098;48.390;10.856;2023-11-21T07:46:35;95607.06;;;22.58
50206;BMP280;36098;48.390;10.856;2023-11-21T07:49:00;95609.88;;;22.95
50206;BMP280;36098;48.390;10.856;2023-11-21T07:51:26;95608.94;;;23.37
50206;BMP280;36098;48.390;10.856;2023-11-21T07:53:51;95607.13;;;23.75
50206;BMP280;36098;48.390;10.856;2023-11-21T07:56:17;95603.16;;;24.14
50206;BMP280;36098;48.390;10.856;2023-11-21T07:58:43;95610.78;;;24.53
50206;BMP280;36098;48.390;10.856;2023-11-21T08:01:09;95601.94;;;24.89
50206;BMP280;36098;48.390;10.856;2023-11-21T08:03:35;95607.69;;;25.23
50206;BMP280;36098;48.390;10.856;2023-11-21T08:06:00;95601.63;;;25.49
50206;BMP280;36098;48.390;10.856;2023-11-21T08:08:28;95598.94;;;25.76
50206;BMP280;36098;48.390;10.856;2023-11-21T08:10:53;95592.75;;;25.94
50206;BMP280;36098;48.390;10.856;2023-11-21T08:13:27;95593.66;;;26.12
50206;BMP280;36098;48.390;10.856;2023-11-21T08:15:57;95593.94;;;26.24
50206;BMP280;36098;48.390;10.856;2023-11-21T08:18:26;95585.16;;;26.37
50206;BMP280;36098;48.390;10.856;2023-11-21T08:20:52;95588.63;;;26.46
50206;BMP280;36098;48.390;10.856;2023-11-21T08:23:17;95587.97;;;26.54
50206;BMP280;36098;48.390;10.856;2023-11-21T08:25:46;95589.09;;;26.61
50206;BMP280;36098;48.390;10.856;2023-11-21T08:28:11;95595.06;;;26.75
50206;BMP280;36098;48.390;10.856;2023-11-21T08:30:37;95589.00;;;26.75
50206;BMP280;36098;48.390;10.856;2023-11-21T08:33:03;95588.88;;;26.80
50206;BMP280;36098;48.390;10.856;2023-11-21T08:35:29;95593.56;;;26.83
50206;BMP280;36098;48.390;10.856;2023-11-21T08:37:55;95590.63;;;26.84
50206;BMP280;36098;48.390;10.856;2023-11-21T08:40:20;95596.06;;;26.88
50206;BMP280;36098;48.390;10.856;2023-11-21T08:42:46;95599.69;;;26.92
50206;BMP280;36098;48.390;10.856;2023-11-21T08:45:13;95601.75;;;26.95
50206;BMP280;36098;48.390;10.856;2023-11-21T08:47:39;95602.22;;;26.97
50206;BMP280;36098;48.390;10.856;2023-11-21T08:50:08;95604.88;;;26.97
50206;BMP280;36098;48.390;10.856;2023-11-21T08:52:34;95600.97;;;27.02
50206;BMP280;36098;48.390;10.856;2023-11-21T08:54:59;95609.41;;;27.04
50206;BMP280;36098;48.390;10.856;2023-11-21T08:57:33;95608.47;;;27.01
50206;BMP280;36098;48.390;10.856;2023-11-21T08:59:58;95610.63;;;26.99
50206;BMP280;36098;48.390;10.856;2023-11-21T09:02:25;95619.53;;;27.02
50206;BMP280;36098;48.390;10.856;2023-11-21T09:04:51;95619.34;;;26.99
50206;BMP280;36098;48.390;10.856;2023-11-21T09:07:18;95615.94;;;26.99
50206;BMP280;36098;48.390;10.856;2023-11-21T09:09:48;95614.66;;;26.96
50206;BMP280;36098;48.390;10.856;2023-11-21T09:12:14;95622.31;;;26.98
50206;BMP280;36098;48.390;10.856;2023-11-21T09:14:40;95619.66;;;26.98
50206;BMP280;36098;48.390;10.856;2023-11-21T09:17:05;95614.38;;;26.98
50206;BMP280;36098;48.390;10.856;2023-11-21T09:19:39;95624.97;;;26.98
50206;BMP280;36098;48.390;10.856;2023-11-21T09:22:04;95626.53;;;26.99
50206;BMP280;36098;48.390;10.856;2023-11-21T09:24:31;95624.19;;;26.97
50206;BMP280;36098;48.390;10.856;2023-11-21T09:26:56;95620.28;;;26.95
50206;BMP280;36098;48.390;10.856;2023-11-21T09:29:21;95632.13;;;26.97
50206;BMP280;36098;48.390;10.856;2023-11-21T09:31:47;95625.25;;;26.96
50206;BMP280;36098;48.390;10.856;2023-11-21T09:34:12;95627.16;;;26.96
50206;BMP280;36098;48.390;10.856;2023-11-21T09:36:39;95628.72;;;26.97
50206;BMP280;36098;48.390;10.856;2023-11-21T09:39:06;95628.72;;;26.97
50206;BMP280;36098;48.390;10.856;2023-11-21T09:41:42;95634.00;;;26.97
50206;BMP280;36098;48.390;10.856;2023-11-21T09:44:09;95635.09;;;26.96
50206;BMP280;36098;48.390;10.856;2023-11-21T09:46:40;95636.19;;;26.95
50206;BMP280;36098;48.390;10.856;2023-11-21T09:49:09;95633.81;;;26.93
50206;BMP280;36098;48.390;10.856;2023-11-21T09:51:44;95631.50;;;26.92
50206;BMP280;36098;48.390;10.856;2023-11-21T09:54:10;95640.53;;;26.91
50206;BMP280;36098;48.390;10.856;2023-11-21T09:56:37;95626.78;;;26.89
50206;BMP280;36098;48.390;10.856;2023-11-21T09:59:03;95628.94;;;26.87
50206;BMP280;36098;48.390;10.856;2023-11-21T10:01:33;95629.56;;;26.84
50206;BMP280;36098;48.390;10.856;2023-11-21T10:04:00;95634.38;;;26.82
50206;BMP280;36098;48.390;10.856;2023-11-21T10:06:26;95626.25;;;26.78
50206;BMP280;36098;48.390;10.856;2023-11-21T10:08:52;95629.97;;;26.77
50206;BMP280;36098;48.390;10.856;2023-11-21T10:11:19;95631.38;;;26.75
50206;BMP280;36098;48.390;10.856;2023-11-21T10:13:49;95634.66;;;26.72
50206;BMP280;36098;48.390;10.856;2023-11-21T10:16:19;95632.56;;;26.69
50206;BMP280;36098;48.390;10.856;2023-11-21T10:18:48;95636.31;;;26.68
50206;BMP280;36098;48.390;10.856;2023-11-21T10:21:13;95639.56;;;26.65
50206;BMP280;36098;48.390;10.856;2023-11-21T10:23:39;95634.88;;;26.62
50206;BMP280;36098;48.390;10.856;2023-11-21T10:26:05;95639.88;;;26.63
50206;BMP280;36098;48.390;10.856;2023-11-21T10:28:35;95643.28;;;26.64
50206;BMP280;36098;48.390;10.856;2023-11-21T10:31:02;95639.09;;;26.63
50206;BMP280;36098;48.390;10.856;2023-11-21T10:33:28;95640.47;;;26.60
50206;BMP280;36098;48.390;10.856;2023-11-21T10:35:56;95633.59;;;26.59
50206;BMP280;36098;48.390;10.856;2023-11-21T10:38:21;95622.84;;;26.56
50206;BMP280;36098;48.390;10.856;2023-11-21T10:40:49;95626.88;;;26.53
50206;BMP280;36098;48.390;10.856;2023-11-21T10:43:15;95625.13;;;26.49
50206;BMP280;36098;48.390;10.856;2023-11-21T10:45:42;95624.34;;;26.48
50206;BMP280;36098;48.390;10.856;2023-11-21T10:48:09;95626.19;;;26.48
50206;BMP280;36098;48.390;10.856;2023-11-21T10:50:36;95625.22;;;26.44
50206;BMP280;36098;48.390;10.856;2023-11-21T10:53:02;95624.72;;;26.42
50206;BMP280;36098;48.390;10.856;2023-11-21T10:55:29;95622.22;;;26.37
50206;BMP280;36098;48.390;10.856;2023-11-21T10:57:58;95623.59;;;26.34
50206;BMP280;36098;48.390;10.856;2023-11-21T11:00:24;95616.53;;;26.30
50206;BMP280;36098;48.390;10.856;2023-11-21T11:02:52;95611.38;;;26.25
50206;BMP280;36098;48.390;10.856;2023-11-21T11:05:20;95621.47;;;26.23
50206;BMP280;36098;48.390;10.856;2023-11-21T11:07:48;95622.38;;;26.18
50206;BMP280;36098;48.390;10.856;2023-11-21T11:10:19;95628.84;;;26.12
50206;BMP280;36098;48.390;10.856;2023-11-21T11:12:48;95627.59;;;26.10
50206;BMP280;36098;48.390;10.856;2023-11-21T11:15:16;95627.28;;;26.11
50206;BMP280;36098;48.390;10.856;2023-11-21T11:17:41;95626.50;;;26.11
50206;BMP280;36098;48.390;10.856;2023-11-21T11:20:09;95621.81;;;26.08
50206;BMP280;36098;48.390;10.856;2023-11-21T11:28:04;95622.72;;;26.03
50206;BMP280;36098;48.390;10.856;2023-11-21T11:30:43;95623.97;;;26.06
50206;BMP280;36098;48.390;10.856;2023-11-21T11:33:31;95619.88;;;26.00
50206;BMP280;36098;48.390;10.856;2023-11-21T11:36:06;95618.31;;;25.99
50206;BMP280;36098;48.390;10.856;2023-11-21T11:38:36;95625.16;;;26.00
50206;BMP280;36098;48.390;10.856;2023-11-21T11:41:03;95629.38;;;26.01
50206;BMP280;36098;48.390;10.856;2023-11-21T11:43:32;95619.75;;;26.05
50206;BMP280;36098;48.390;10.856;2023-11-21T11:46:10;95631.44;;;26.04
50206;BMP280;36098;48.390;10.856;2023-11-21T11:48:39;95624.84;;;26.01
50206;BMP280;36098;48.390;10.856;2023-11-21T11:51:12;95622.03;;;25.98
50206;BMP280;36098;48.390;10.856;2023-11-21T11:53:45;95622.16;;;25.93
50206;BMP280;36098;48.390;10.856;2023-11-21T11:56:29;95624.59;;;25.89
50206;BMP280;36098;48.390;10.856;2023-11-21T11:58:58;95623.94;;;25.84
50206;BMP280;36098;48.390;10.856;2023-11-21T12:01:27;95617.31;;;25.81
50206;BMP280;36098;48.390;10.856;2023-11-21T12:06:36;95626.94;;;25.77
50206;BMP280;36098;48.390;10.856;2023-11-21T12:09:02;95619.91;;;25.73
50206;BMP280;36098;48.390;10.856;2023-11-21T12:11:33;95614.44;;;25.69
50206;BMP280;36098;48.390;10.856;2023-11-21T12:14:01;95614.72;;;25.68
50206;BMP280;36098;48.390;10.856;2023-11-21T12:16:27;95612.19;;;25.63
50206;BMP280;36098;48.390;10.856;2023-11-21T12:18:53;95618.53;;;25.62
50206;BMP280;36098;48.390;10.856;2023-11-21T12:21:19;95614.63;;;25.59
50206;BMP280;36098;48.390;10.856;2023-11-21T12:23:45;95610.72;;;25.57
50206;BMP280;36098;48.390;10.856;2023-11-21T12:26:11;95618.16;;;25.55
50206;BMP280;36098;48.390;10.856;2023-11-21T12:28:38;95618.72;;;25.52
50206;BMP280;36098;48.390;10.856;2023-11-21T12:31:03;95620.91;;;25.50
50206;BMP280;36098;48.390;10.856;2023-11-21T12:33:32;95627.75;;;25.51
50206;BMP280;36098;48.390;10.856;2023-11-21T12:35:58;95620.41;;;25.48
50206;BMP280;36098;48.390;10.856;2023-11-21T12:38:23;95629.25;;;25.43
50206;BMP280;36098;48.390;10.856;2023-11-21T12:40:50;95629.53;;;25.42
50206;BMP280;36098;48.390;10.856;2023-11-21T12:43:16;95619.16;;;25.45
50206;BMP280;36098;48.390;10.856;2023-11-21T12:45:43;95630.50;;;25.46
50206;BMP280;36098;48.390;10.856;2023-11-21T12:48:09;95637.94;;;25.44
50206;BMP280;36098;48.390;10.856;2023-11-21T12:50:37;95639.59;;;25.40
50206;BMP280;36098;48.390;10.856;2023-11-21T12:53:06;95637.56;;;25.37
50206;BMP280;36098;48.390;10.856;2023-11-21T12:55:34;95638.44;;;25.32
50206;BMP280;36098;48.390;10.856;2023-11-21T12:58:04;95636.38;;;25.29
50206;BMP280;36098;48.390;10.856;2023-11-21T13:00:36;95641.44;;;25.26
50206;BMP280;36098;48.390;10.856;2023-11-21T13:03:06;95647.06;;;25.24
50206;BMP280;36098;48.390;10.856;2023-11-21T13:05:39;95643.97;;;25.17
50206;BMP280;36098;48.390;10.856;2023-11-21T13:08:06;95644.81;;;25.13
50206;BMP280;36098;48.390;10.856;2023-11-21T13:10:34;95641.69;;;25.11
50206;BMP280;36098;48.390;10.856;2023-11-21T13:13:06;95643.78;;;25.14
50206;BMP280;36098;48.390;10.856;2023-11-21T13:15:34;95646.09;;;25.15
50206;BMP280;36098;48.390;10.856;2023-11-21T13:18:01;95645.84;;;25.17
50206;BMP280;36098;48.390;10.856;2023-11-21T13:20:27;95654.66;;;25.26
50206;BMP280;36098;48.390;10.856;2023-11-21T13:22:55;95650.34;;;25.30
50206;BMP280;36098;48.390;10.856;2023-11-21T13:25:24;95660.25;;;25.38
50206;BMP280;36098;48.390;10.856;2023-11-21T13:27:55;95659.09;;;25.44
50206;BMP280;36098;48.390;10.856;2023-11-21T13:30:21;95665.94;;;25.45
50206;BMP280;36098;48.390;10.856;2023-11-21T13:32:56;95669.06;;;25.47
50206;BMP280;36098;48.390;10.856;2023-11-21T13:35:29;95665.28;;;25.53
50206;BMP280;36098;48.390;10.856;2023-11-21T13:38:08;95660.94;;;25.57
50206;BMP280;36098;48.390;10.856;2023-11-21T13:40:34;95670.06;;;25.64
50206;BMP280;36098;48.390;10.856;2023-11-21T13:43:11;95655.16;;;25.68
50206;BMP280;36098;48.390;10.856;2023-11-21T13:45:37;95663.28;;;25.72
50206;BMP280;36098;48.390;10.856;2023-11-21T13:48:05;95660.56;;;25.77
50206;BMP280;36098;48.390;10.856;2023-11-21T13:50:35;95657.78;;;25.82
50206;BMP280;36098;48.390;10.856;2023-11-21T13:53:01;95672.00;;;25.86
50206;BMP280;36098;48.390;10.856;2023-11-21T13:55:29;95669.38;;;25.86
50206;BMP280;36098;48.390;10.856;2023-11-21T13:57:54;95669.09;;;25.87
50206;BMP280;36098;48.390;10.856;2023-11-21T14:00:19;95685.13;;;25.91
50206;BMP280;36098;48.390;10.856;2023-11-21T14:03:08;95682.19;;;25.92